sensor_id;sensor_type;location;lat;lon;timestamp;P1;durP1;ratioP1;P2;durP2;ratioP2
70014;SDS011;57358;51.094;6.760;2023-06-22T00:01:13;6.80;;;6.40;;
70014;SDS011;57358;51.094;6.760;2023-06-22T00:03:39;6.22;;;5.80;;
70014;SDS011;57358;51.094;6.760;2023-06-22T00:06:06;6.63;;;6.10;;
70014;SDS011;57358;51.094;6.760;2023-06-22T00:08:32;6.22;;;5.90;;
70014;SDS011;57358;51.094;6.760;2023-06-22T00:10:59;6.00;;;5.70;;
70014;SDS011;57358;51.094;6.760;2023-06-22T00:13:25;6.78;;;6.38;;
70014;SDS011;57358;51.094;6.760;2023-06-22T00:15:51;6.60;;;6.10;;
70014;SDS011;57358;51.094;6.760;2023-06-22T00:18:18;6.88;;;6.38;;
70014;SDS011;57358;51.094;6.760;2023-06-22T00:20:44;6.47;;;6.07;;
70014;SDS011;57358;51.094;6.760;2023-06-22T00:23:11;6.40;;;6.00;;
70014;SDS011;57358;51.094;6.760;2023-06-22T00:25:39;6.72;;;6.13;;
70014;SDS011;57358;51.094;6.760;2023-06-22T00:28:06;6.72;;;6.20;;
70014;SDS011;57358;51.094;6.760;2023-06-22T00:30:34;6.90;;;6.50;;
70014;SDS011;57358;51.094;6.760;2023-06-22T00:33:01;6.78;;;6.18;;
70014;SDS011;57358;51.094;6.760;2023-06-22T00:35:27;7.07;;;6.57;;
70014;SDS011;57358;51.094;6.760;2023-06-22T00:37:57;5.93;;;5.63;;
70014;SDS011;57358;51.094;6.760;2023-06-22T00:40:28;7.70;;;7.10;;
70014;SDS011;57358;51.094;6.760;2023-06-22T00:42:55;6.43;;;6.03;;
70014;SDS011;57358;51.094;6.760;2023-06-22T00:45:22;7.18;;;6.55;;
70014;SDS011;57358;51.094;6.760;2023-06-22T00:47:50;6.43;;;6.03;;
70014;SDS011;57358;51.094;6.760;2023-06-22T00:50:19;6.93;;;6.28;;
70014;SDS011;57358;51.094;6.760;2023-06-22T00:52:56;6.50;;;6.00;;
70014;SDS011;57358;51.094;6.760;2023-06-22T00:55:25;6.70;;;6.30;;
70014;SDS011;57358;51.094;6.760;2023-06-22T00:57:54;9.80;;;6.30;;
70014;SDS011;57358;51.094;6.760;2023-06-22T01:00:24;6.68;;;6.28;;
70014;SDS011;57358;51.094;6.760;2023-06-22T01:02:52;7.88;;;6.60;;
70014;SDS011;57358;51.094;6.760;2023-06-22T01:05:22;7.13;;;6.55;;
70014;SDS011;57358;51.094;6.760;2023-06-22T01:10:37;7.20;;;6.70;;
70014;SDS011;57358;51.094;6.760;2023-06-22T01:13:28;7.18;;;6.68;;
70014;SDS011;57358;51.094;6.760;2023-06-22T01:16:00;7.40;;;6.70;;
70014;SDS011;57358;51.094;6.760;2023-06-22T01:18:30;7.22;;;6.72;;
70014;SDS011;57358;51.094;6.760;2023-06-22T01:20:59;6.93;;;6.50;;
70014;SDS011;57358;51.094;6.760;2023-06-22T01:26:16;6.75;;;6.25;;
70014;SDS011;57358;51.094;6.760;2023-06-22T01:28:49;7.05;;;6.47;;
70014;SDS011;57358;51.094;6.760;2023-06-22T01:31:20;7.30;;;6.70;;
70014;SDS011;57358;51.094;6.760;2023-06-22T01:33:56;7.82;;;6.30;;
70014;SDS011;57358;51.094;6.760;2023-06-22T01:36:25;6.95;;;6.35;;
70014;SDS011;57358;51.094;6.760;2023-06-22T01:38:53;6.88;;;6.38;;
70014;SDS011;57358;51.094;6.760;2023-06-22T01:41:20;6.88;;;6.38;;
70014;SDS011;57358;51.094;6.760;2023-06-22T01:43:48;6.60;;;6.10;;
70014;SDS011;57358;51.094;6.760;2023-06-22T01:46:15;6.60;;;6.18;;
70014;SDS011;57358;51.094;6.760;2023-06-22T01:48:41;6.53;;;6.13;;
70014;SDS011;57358;51.094;6.760;2023-06-22T01:51:08;6.45;;;6.05;;
70014;SDS011;57358;51.094;6.760;2023-06-22T01:53:35;6.50;;;6.10;;
70014;SDS011;57358;51.094;6.760;2023-06-22T01:56:02;6.90;;;6.38;;
70014;SDS011;57358;51.094;6.760;2023-06-22T01:58:29;7.18;;;6.68;;
70014;SDS011;57358;51.094;6.760;2023-06-22T02:00:58;6.95;;;6.45;;
70014;SDS011;57358;51.094;6.760;2023-06-22T02:03:34;7.93;;;7.32;;
70014;SDS011;57358;51.094;6.760;2023-06-22T02:06:05;7.38;;;6.68;;
70014;SDS011;57358;51.094;6.760;2023-06-22T02:08:41;7.60;;;6.90;;
70014;SDS011;57358;51.094;6.760;2023-06-22T02:11:12;7.20;;;6.65;;
70014;SDS011;57358;51.094;6.760;2023-06-22T02:13:42;6.97;;;6.47;;
70014;SDS011;57358;51.094;6.760;2023-06-22T02:16:10;11.68;;;6.65;;
70014;SDS011;57358;51.094;6.760;2023-06-22T02:18:37;7.60;;;6.90;;
70014;SDS011;57358;51.094;6.760;2023-06-22T02:21:06;7.35;;;6.82;;
70014;SDS011;57358;51.094;6.760;2023-06-22T02:23:32;7.75;;;7.05;;
70014;SDS011;57358;51.094;6.760;2023-06-22T02:26:02;6.90;;;6.28;;
70014;SDS011;57358;51.094;6.760;2023-06-22T02:28:29;10.38;;;7.05;;
70014;SDS011;57358;51.094;6.760;2023-06-22T02:30:55;7.55;;;6.95;;
70014;SDS011;57358;51.094;6.760;2023-06-22T02:33:22;7.97;;;7.28;;
70014;SDS011;57358;51.094;6.760;2023-06-22T02:35:48;7.30;;;6.80;;
70014;SDS011;57358;51.094;6.760;2023-06-22T02:38:15;7.05;;;6.57;;
70014;SDS011;57358;51.094;6.760;2023-06-22T02:40:41;7.22;;;6.63;;
70014;SDS011;57358;51.094;6.760;2023-06-22T02:43:08;7.97;;;7.15;;
70014;SDS011;57358;51.094;6.760;2023-06-22T02:45:34;7.65;;;6.95;;
70014;SDS011;57358;51.094;6.760;2023-06-22T02:48:00;7.70;;;7.05;;
70014;SDS011;57358;51.094;6.760;2023-06-22T02:50:27;7.50;;;6.90;;
70014;SDS011;57358;51.094;6.760;2023-06-22T02:52:54;7.65;;;7.07;;
70014;SDS011;57358;51.094;6.760;2023-06-22T02:55:20;7.75;;;7.13;;
70014;SDS011;57358;51.094;6.760;2023-06-22T02:57:47;8.32;;;7.53;;
70014;SDS011;57358;51.094;6.760;2023-06-22T03:00:19;7.97;;;7.20;;
70014;SDS011;57358;51.094;6.760;2023-06-22T03:02:46;7.28;;;6.80;;
70014;SDS011;57358;51.094;6.760;2023-06-22T03:05:14;14.27;;;13.20;;
70014;SDS011;57358;51.094;6.760;2023-06-22T03:07:44;7.60;;;7.00;;
70014;SDS011;57358;51.094;6.760;2023-06-22T03:10:11;7.75;;;7.00;;
70014;SDS011;57358;51.094;6.760;2023-06-22T03:12:39;7.47;;;6.85;;
70014;SDS011;57358;51.094;6.760;2023-06-22T03:15:07;7.60;;;7.00;;
70014;SDS011;57358;51.094;6.760;2023-06-22T03:17:36;8.15;;;7.45;;
70014;SDS011;57358;51.094;6.760;2023-06-22T03:20:05;7.32;;;6.63;;
70014;SDS011;57358;51.094;6.760;2023-06-22T03:22:37;8.60;;;7.70;;
70014;SDS011;57358;51.094;6.760;2023-06-22T03:25:04;7.82;;;7.15;;
70014;SDS011;57358;51.094;6.760;2023-06-22T03:27:36;7.37;;;6.87;;
70014;SDS011;57358;51.094;6.760;2023-06-22T03:30:03;7.90;;;7.22;;
70014;SDS011;57358;51.094;6.760;2023-06-22T03:32:30;7.25;;;6.75;;
70014;SDS011;57358;51.094;6.760;2023-06-22T03:34:56;8.55;;;7.68;;
70014;SDS011;57358;51.094;6.760;2023-06-22T03:37:25;11.10;;;7.70;;
70014;SDS011;57358;51.094;6.760;2023-06-22T03:39:52;8.35;;;7.47;;
70014;SDS011;57358;51.094;6.760;2023-06-22T03:42:19;7.55;;;7.00;;
70014;SDS011;57358;51.094;6.760;2023-06-22T03:44:46;7.95;;;7.28;;
70014;SDS011;57358;51.094;6.760;2023-06-22T03:47:13;8.45;;;7.60;;
70014;SDS011;57358;51.094;6.760;2023-06-22T03:49:39;8.68;;;7.28;;
70014;SDS011;57358;51.094;6.760;2023-06-22T03:52:06;7.38;;;6.88;;
70014;SDS011;57358;51.094;6.760;2023-06-22T03:54:32;8.18;;;7.47;;
70014;SDS011;57358;51.094;6.760;2023-06-22T03:56:59;8.70;;;7.80;;
70014;SDS011;57358;51.094;6.760;2023-06-22T03:59:26;11.95;;;7.75;;
70014;SDS011;57358;51.094;6.760;2023-06-22T04:01:52;7.47;;;6.88;;
70014;SDS011;57358;51.094;6.760;2023-06-22T04:04:19;7.70;;;7.00;;
70014;SDS011;57358;51.094;6.760;2023-06-22T04:06:45;7.85;;;7.22;;
70014;SDS011;57358;51.094;6.760;2023-06-22T04:09:12;8.38;;;7.22;;
70014;SDS011;57358;51.094;6.760;2023-06-22T04:11:39;7.88;;;7.22;;
70014;SDS011;57358;51.094;6.760;2023-06-22T04:14:05;7.93;;;7.13;;
70014;SDS011;57358;51.094;6.760;2023-06-22T04:16:31;8.07;;;7.28;;
70014;SDS011;57358;51.094;6.760;2023-06-22T04:18:58;7.30;;;6.80;;
70014;SDS011;57358;51.094;6.760;2023-06-22T04:21:24;8.10;;;7.30;;
70014;SDS011;57358;51.094;6.760;2023-06-22T04:23:51;7.85;;;7.15;;
70014;SDS011;57358;51.094;6.760;2023-06-22T04:26:17;14.38;;;7.57;;
70014;SDS011;57358;51.094;6.760;2023-06-22T04:28:47;8.07;;;7.18;;
70014;SDS011;57358;51.094;6.760;2023-06-22T04:31:18;7.22;;;6.72;;
70014;SDS011;57358;51.094;6.760;2023-06-22T04:33:45;9.85;;;7.47;;
70014;SDS011;57358;51.094;6.760;2023-06-22T04:36:11;7.63;;;6.85;;
70014;SDS011;57358;51.094;6.760;2023-06-22T04:38:41;8.15;;;7.45;;
70014;SDS011;57358;51.094;6.760;2023-06-22T04:41:08;8.00;;;7.18;;
70014;SDS011;57358;51.094;6.760;2023-06-22T04:43:40;7.80;;;7.20;;
70014;SDS011;57358;51.094;6.760;2023-06-22T04:46:06;7.68;;;6.97;;
70014;SDS011;57358;51.094;6.760;2023-06-22T04:48:32;8.65;;;7.78;;
70014;SDS011;57358;51.094;6.760;2023-06-22T04:50:59;7.80;;;7.20;;
70014;SDS011;57358;51.094;6.760;2023-06-22T04:53:30;7.60;;;7.00;;
70014;SDS011;57358;51.094;6.760;2023-06-22T04:55:57;8.10;;;7.40;;
70014;SDS011;57358;51.094;6.760;2023-06-22T04:58:24;7.55;;;6.95;;
70014;SDS011;57358;51.094;6.760;2023-06-22T05:00:58;8.27;;;7.55;;
70014;SDS011;57358;51.094;6.760;2023-06-22T05:03:27;8.73;;;8.05;;
70014;SDS011;57358;51.094;6.760;2023-06-22T05:05:54;8.13;;;7.43;;
70014;SDS011;57358;51.094;6.760;2023-06-22T05:08:20;9.18;;;8.23;;
70014;SDS011;57358;51.094;6.760;2023-06-22T05:10:47;10.32;;;7.20;;
70014;SDS011;57358;51.094;6.760;2023-06-22T05:13:28;7.75;;;7.07;;
70014;SDS011;57358;51.094;6.760;2023-06-22T05:15:55;7.72;;;7.13;;
70014;SDS011;57358;51.094;6.760;2023-06-22T05:18:27;8.40;;;7.60;;
70014;SDS011;57358;51.094;6.760;2023-06-22T05:20:55;8.20;;;7.40;;
70014;SDS011;57358;51.094;6.760;2023-06-22T05:23:22;8.00;;;7.40;;
70014;SDS011;57358;51.094;6.760;2023-06-22T05:25:48;8.00;;;7.18;;
70014;SDS011;57358;51.094;6.760;2023-06-22T05:28:15;8.05;;;7.45;;
70014;SDS011;57358;51.094;6.760;2023-06-22T05:30:41;7.35;;;6.75;;
70014;SDS011;57358;51.094;6.760;2023-06-22T05:33:08;7.95;;;7.35;;
70014;SDS011;57358;51.094;6.760;2023-06-22T05:35:34;7.85;;;7.25;;
70014;SDS011;57358;51.094;6.760;2023-06-22T05:38:00;8.15;;;7.45;;
70014;SDS011;57358;51.094;6.760;2023-06-22T05:40:27;8.63;;;7.90;;
70014;SDS011;57358;51.094;6.760;2023-06-22T05:42:54;7.15;;;6.72;;
70014;SDS011;57358;51.094;6.760;2023-06-22T05:45:20;7.72;;;7.07;;
70014;SDS011;57358;51.094;6.760;2023-06-22T05:47:46;8.30;;;7.10;;
70014;SDS011;57358;51.094;6.760;2023-06-22T05:50:13;7.55;;;6.85;;
70014;SDS011;57358;51.094;6.760;2023-06-22T05:52:39;7.55;;;7.00;;
70014;SDS011;57358;51.094;6.760;2023-06-22T05:55:06;7.53;;;6.93;;
70014;SDS011;57358;51.094;6.760;2023-06-22T05:57:32;7.57;;;6.97;;
70014;SDS011;57358;51.094;6.760;2023-06-22T05:59:59;7.95;;;7.32;;
70014;SDS011;57358;51.094;6.760;2023-06-22T06:02:25;7.82;;;7.22;;
70014;SDS011;57358;51.094;6.760;2023-06-22T06:04:52;7.13;;;6.47;;
70014;SDS011;57358;51.094;6.760;2023-06-22T06:07:21;10.10;;;7.05;;
70014;SDS011;57358;51.094;6.760;2023-06-22T06:09:48;7.55;;;7.00;;
70014;SDS011;57358;51.094;6.760;2023-06-22T06:12:14;7.22;;;6.72;;
70014;SDS011;57358;51.094;6.760;2023-06-22T06:14:40;7.53;;;7.03;;
70014;SDS011;57358;51.094;6.760;2023-06-22T06:17:07;8.73;;;7.55;;
70014;SDS011;57358;51.094;6.760;2023-06-22T06:19:33;8.25;;;7.55;;
70014;SDS011;57358;51.094;6.760;2023-06-22T06:22:00;7.53;;;6.93;;
70014;SDS011;57358;51.094;6.760;2023-06-22T06:24:26;8.82;;;8.07;;
70014;SDS011;57358;51.094;6.760;2023-06-22T06:26:53;9.35;;;7.55;;
70014;SDS011;57358;51.094;6.760;2023-06-22T06:29:19;7.75;;;7.15;;
70014;SDS011;57358;51.094;6.760;2023-06-22T06:31:45;7.93;;;7.22;;
70014;SDS011;57358;51.094;6.760;2023-06-22T06:34:12;8.20;;;7.50;;
70014;SDS011;57358;51.094;6.760;2023-06-22T06:36:38;9.45;;;8.43;;
70014;SDS011;57358;51.094;6.760;2023-06-22T06:39:04;8.10;;;7.40;;
70014;SDS011;57358;51.094;6.760;2023-06-22T06:41:31;9.73;;;8.20;;
70014;SDS011;57358;51.094;6.760;2023-06-22T06:43:57;11.23;;;8.10;;
70014;SDS011;57358;51.094;6.760;2023-06-22T06:46:24;9.48;;;7.78;;
70014;SDS011;57358;51.094;6.760;2023-06-22T06:48:50;10.13;;;8.07;;
70014;SDS011;57358;51.094;6.760;2023-06-22T06:51:17;10.68;;;8.10;;
70014;SDS011;57358;51.094;6.760;2023-06-22T06:53:43;9.25;;;8.40;;
70014;SDS011;57358;51.094;6.760;2023-06-22T06:56:09;8.73;;;7.88;;
70014;SDS011;57358;51.094;6.760;2023-06-22T06:58:36;8.77;;;7.97;;
70014;SDS011;57358;51.094;6.760;2023-06-22T07:01:03;8.80;;;8.00;;
70014;SDS011;57358;51.094;6.760;2023-06-22T07:03:29;10.30;;;8.30;;
70014;SDS011;57358;51.094;6.760;2023-06-22T07:05:56;13.93;;;8.20;;
70014;SDS011;57358;51.094;6.760;2023-06-22T07:08:22;9.15;;;8.35;;
70014;SDS011;57358;51.094;6.760;2023-06-22T07:10:49;9.65;;;8.68;;
70014;SDS011;57358;51.094;6.760;2023-06-22T07:13:15;9.95;;;8.85;;
70014;SDS011;57358;51.094;6.760;2023-06-22T07:15:41;10.10;;;8.48;;
70014;SDS011;57358;51.094;6.760;2023-06-22T07:18:08;9.60;;;8.65;;
70014;SDS011;57358;51.094;6.760;2023-06-22T07:20:34;9.60;;;8.40;;
70014;SDS011;57358;51.094;6.760;2023-06-22T07:23:01;10.27;;;9.25;;
70014;SDS011;57358;51.094;6.760;2023-06-22T07:25:27;9.73;;;8.88;;
70014;SDS011;57358;51.094;6.760;2023-06-22T07:28:03;9.35;;;8.55;;
70014;SDS011;57358;51.094;6.760;2023-06-22T07:30:31;9.80;;;8.80;;
70014;SDS011;57358;51.094;6.760;2023-06-22T07:32:59;9.30;;;8.20;;
70014;SDS011;57358;51.094;6.760;2023-06-22T07:35:30;13.18;;;8.30;;
70014;SDS011;57358;51.094;6.760;2023-06-22T07:37:57;9.65;;;8.57;;
70014;SDS011;57358;51.094;6.760;2023-06-22T07:40:23;10.10;;;9.07;;
70014;SDS011;57358;51.094;6.760;2023-06-22T07:42:50;11.02;;;8.93;;
70014;SDS011;57358;51.094;6.760;2023-06-22T07:45:17;9.10;;;8.15;;
70014;SDS011;57358;51.094;6.760;2023-06-22T07:47:44;9.10;;;8.20;;
70014;SDS011;57358;51.094;6.760;2023-06-22T07:50:13;9.65;;;8.50;;
70014;SDS011;57358;51.094;6.760;2023-06-22T07:52:39;9.90;;;9.02;;
70014;SDS011;57358;51.094;6.760;2023-06-22T07:55:06;9.55;;;8.55;;
70014;SDS011;57358;51.094;6.760;2023-06-22T07:57:33;11.85;;;9.25;;
70014;SDS011;57358;51.094;6.760;2023-06-22T08:00:00;12.52;;;9.02;;
70014;SDS011;57358;51.094;6.760;2023-06-22T08:02:30;9.40;;;8.50;;
70014;SDS011;57358;51.094;6.760;2023-06-22T08:04:56;8.75;;;8.02;;
70014;SDS011;57358;51.094;6.760;2023-06-22T08:07:43;9.40;;;8.60;;
70014;SDS011;57358;51.094;6.760;2023-06-22T08:10:13;9.93;;;9.02;;
70014;SDS011;57358;51.094;6.760;2023-06-22T08:12:40;9.73;;;8.82;;
70014;SDS011;57358;51.094;6.760;2023-06-22T08:15:06;12.52;;;8.90;;
70014;SDS011;57358;51.094;6.760;2023-06-22T08:17:37;9.18;;;8.45;;
70014;SDS011;57358;51.094;6.760;2023-06-22T08:20:05;8.32;;;7.53;;
70014;SDS011;57358;51.094;6.760;2023-06-22T08:22:36;9.02;;;8.30;;
70014;SDS011;57358;51.094;6.760;2023-06-22T08:25:03;10.45;;;8.68;;
70014;SDS011;57358;51.094;6.760;2023-06-22T08:27:30;8.55;;;7.82;;
70014;SDS011;57358;51.094;6.760;2023-06-22T08:30:00;9.57;;;8.65;;
70014;SDS011;57358;51.094;6.760;2023-06-22T08:32:29;9.38;;;8.48;;
70014;SDS011;57358;51.094;6.760;2023-06-22T08:34:56;9.60;;;8.10;;
70014;SDS011;57358;51.094;6.760;2023-06-22T08:37:23;9.98;;;8.55;;
70014;SDS011;57358;51.094;6.760;2023-06-22T08:39:59;9.00;;;8.20;;
70014;SDS011;57358;51.094;6.760;2023-06-22T08:42:39;8.43;;;7.72;;
70014;SDS011;57358;51.094;6.760;2023-06-22T08:45:06;9.02;;;8.13;;
70014;SDS011;57358;51.094;6.760;2023-06-22T08:47:33;9.48;;;8.60;;
70014;SDS011;57358;51.094;6.760;2023-06-22T08:50:00;8.40;;;7.70;;
70014;SDS011;57358;51.094;6.760;2023-06-22T08:52:29;9.25;;;8.32;;
70014;SDS011;57358;51.094;6.760;2023-06-22T08:54:55;8.80;;;8.05;;
70014;SDS011;57358;51.094;6.760;2023-06-22T08:57:22;9.60;;;8.70;;
70014;SDS011;57358;51.094;6.760;2023-06-22T08:59:48;8.88;;;8.07;;
70014;SDS011;57358;51.094;6.760;2023-06-22T09:02:15;8.80;;;8.00;;
70014;SDS011;57358;51.094;6.760;2023-06-22T09:04:43;8.68;;;7.97;;
70014;SDS011;57358;51.094;6.760;2023-06-22T09:07:09;8.93;;;8.13;;
70014;SDS011;57358;51.094;6.760;2023-06-22T09:09:36;9.90;;;8.10;;
70014;SDS011;57358;51.094;6.760;2023-06-22T09:12:02;8.75;;;7.97;;
70014;SDS011;57358;51.094;6.760;2023-06-22T09:14:29;11.30;;;8.27;;
70014;SDS011;57358;51.094;6.760;2023-06-22T09:16:55;9.07;;;8.20;;
70014;SDS011;57358;51.094;6.760;2023-06-22T09:19:22;8.90;;;8.10;;
70014;SDS011;57358;51.094;6.760;2023-06-22T09:21:48;8.32;;;7.53;;
70014;SDS011;57358;51.094;6.760;2023-06-22T09:24:15;8.23;;;7.53;;
70014;SDS011;57358;51.094;6.760;2023-06-22T09:26:41;7.93;;;7.32;;
70014;SDS011;57358;51.094;6.760;2023-06-22T09:29:08;7.57;;;6.97;;
70014;SDS011;57358;51.094;6.760;2023-06-22T09:31:34;8.30;;;7.60;;
70014;SDS011;57358;51.094;6.760;2023-06-22T09:34:00;7.75;;;7.15;;
70014;SDS011;57358;51.094;6.760;2023-06-22T09:36:27;7.95;;;7.25;;
70014;SDS011;57358;51.094;6.760;2023-06-22T09:38:53;8.18;;;7.47;;
70014;SDS011;57358;51.094;6.760;2023-06-22T09:41:24;8.10;;;7.47;;
70014;SDS011;57358;51.094;6.760;2023-06-22T09:43:51;8.88;;;7.93;;
70014;SDS011;57358;51.094;6.760;2023-06-22T09:46:21;8.13;;;7.43;;
70014;SDS011;57358;51.094;6.760;2023-06-22T09:48:51;8.40;;;7.70;;
70014;SDS011;57358;51.094;6.760;2023-06-22T09:51:17;8.00;;;7.20;;
70014;SDS011;57358;51.094;6.760;2023-06-22T09:53:45;9.23;;;8.43;;
70014;SDS011;57358;51.094;6.760;2023-06-22T09:56:12;8.18;;;7.47;;
70014;SDS011;57358;51.094;6.760;2023-06-22T09:58:45;8.32;;;7.72;;
70014;SDS011;57358;51.094;6.760;2023-06-22T10:01:19;8.48;;;7.72;;
70014;SDS011;57358;51.094;6.760;2023-06-22T10:03:47;8.23;;;7.53;;
70014;SDS011;57358;51.094;6.760;2023-06-22T10:06:13;8.85;;;8.15;;
70014;SDS011;57358;51.094;6.760;2023-06-22T10:08:40;10.57;;;7.88;;
70014;SDS011;57358;51.094;6.760;2023-06-22T10:11:07;7.97;;;7.30;;
70014;SDS011;57358;51.094;6.760;2023-06-22T10:13:33;8.15;;;7.45;;
70014;SDS011;57358;51.094;6.760;2023-06-22T10:15:59;7.78;;;7.18;;
70014;SDS011;57358;51.094;6.760;2023-06-22T10:18:26;8.27;;;7.63;;
70014;SDS011;57358;51.094;6.760;2023-06-22T10:20:52;8.00;;;7.40;;
70014;SDS011;57358;51.094;6.760;2023-06-22T10:23:19;8.38;;;7.35;;
70014;SDS011;57358;51.094;6.760;2023-06-22T10:25:46;8.35;;;7.68;;
70014;SDS011;57358;51.094;6.760;2023-06-22T10:28:13;7.68;;;7.05;;
70014;SDS011;57358;51.094;6.760;2023-06-22T10:30:39;8.10;;;7.43;;
70014;SDS011;57358;51.094;6.760;2023-06-22T10:33:10;9.80;;;8.40;;
70014;SDS011;57358;51.094;6.760;2023-06-22T10:35:37;8.15;;;7.53;;
70014;SDS011;57358;51.094;6.760;2023-06-22T10:38:04;7.80;;;7.20;;
70014;SDS011;57358;51.094;6.760;2023-06-22T10:40:31;8.77;;;8.07;;
70014;SDS011;57358;51.094;6.760;2023-06-22T10:42:58;9.60;;;7.68;;
70014;SDS011;57358;51.094;6.760;2023-06-22T10:45:24;8.13;;;7.43;;
70014;SDS011;57358;51.094;6.760;2023-06-22T10:47:51;8.52;;;7.82;;
70014;SDS011;57358;51.094;6.760;2023-06-22T10:50:17;9.00;;;7.57;;
70014;SDS011;57358;51.094;6.760;2023-06-22T10:52:44;8.80;;;7.93;;
70014;SDS011;57358;51.094;6.760;2023-06-22T10:55:10;8.35;;;7.65;;
70014;SDS011;57358;51.094;6.760;2023-06-22T10:57:37;9.25;;;8.45;;
70014;SDS011;57358;51.094;6.760;2023-06-22T11:00:05;9.48;;;8.43;;
70014;SDS011;57358;51.094;6.760;2023-06-22T11:02:32;9.27;;;8.38;;
70014;SDS011;57358;51.094;6.760;2023-06-22T11:04:59;8.70;;;8.00;;
70014;SDS011;57358;51.094;6.760;2023-06-22T11:07:29;9.70;;;8.80;;
70014;SDS011;57358;51.094;6.760;2023-06-22T11:09:56;8.68;;;7.65;;
70014;SDS011;57358;51.094;6.760;2023-06-22T11:12:22;10.40;;;8.63;;
70014;SDS011;57358;51.094;6.760;2023-06-22T11:14:49;9.10;;;8.25;;
70014;SDS011;57358;51.094;6.760;2023-06-22T11:17:17;9.60;;;8.70;;
70014;SDS011;57358;51.094;6.760;2023-06-22T11:19:44;9.63;;;8.68;;
70014;SDS011;57358;51.094;6.760;2023-06-22T11:22:11;11.52;;;8.50;;
70014;SDS011;57358;51.094;6.760;2023-06-22T11:24:37;9.35;;;8.35;;
70014;SDS011;57358;51.094;6.760;2023-06-22T11:27:04;9.95;;;9.00;;
70014;SDS011;57358;51.094;6.760;2023-06-22T11:29:31;9.27;;;8.48;;
70014;SDS011;57358;51.094;6.760;2023-06-22T11:32:04;9.98;;;8.75;;
70014;SDS011;57358;51.094;6.760;2023-06-22T11:34:31;9.57;;;8.68;;
70014;SDS011;57358;51.094;6.760;2023-06-22T11:36:58;11.70;;;9.35;;
70014;SDS011;57358;51.094;6.760;2023-06-22T11:39:24;10.43;;;9.32;;
70014;SDS011;57358;51.094;6.760;2023-06-22T11:42:06;12.95;;;9.07;;
70014;SDS011;57358;51.094;6.760;2023-06-22T11:44:33;10.13;;;9.13;;
70014;SDS011;57358;51.094;6.760;2023-06-22T11:47:00;11.88;;;9.35;;
70014;SDS011;57358;51.094;6.760;2023-06-22T11:49:27;12.43;;;10.45;;
70014;SDS011;57358;51.094;6.760;2023-06-22T11:51:53;17.52;;;9.25;;
70014;SDS011;57358;51.094;6.760;2023-06-22T11:54:20;11.18;;;10.05;;
70014;SDS011;57358;51.094;6.760;2023-06-22T11:56:46;18.15;;;10.85;;
70014;SDS011;57358;51.094;6.760;2023-06-22T11:59:12;12.40;;;11.10;;
70014;SDS011;57358;51.094;6.760;2023-06-22T12:01:39;13.63;;;11.38;;
70014;SDS011;57358;51.094;6.760;2023-06-22T12:04:06;11.25;;;9.93;;
70014;SDS011;57358;51.094;6.760;2023-06-22T12:06:32;12.95;;;10.48;;
70014;SDS011;57358;51.094;6.760;2023-06-22T12:08:59;11.90;;;10.70;;
70014;SDS011;57358;51.094;6.760;2023-06-22T12:11:25;14.23;;;10.50;;
70014;SDS011;57358;51.094;6.760;2023-06-22T12:13:52;11.80;;;10.63;;
70014;SDS011;57358;51.094;6.760;2023-06-22T12:16:18;11.02;;;9.90;;
70014;SDS011;57358;51.094;6.760;2023-06-22T12:18:47;11.70;;;10.43;;
70014;SDS011;57358;51.094;6.760;2023-06-22T12:21:14;16.35;;;10.27;;
70014;SDS011;57358;51.094;6.760;2023-06-22T12:23:40;13.90;;;10.82;;
70014;SDS011;57358;51.094;6.760;2023-06-22T12:26:09;14.15;;;10.30;;
70014;SDS011;57358;51.094;6.760;2023-06-22T12:28:35;12.18;;;10.90;;
70014;SDS011;57358;51.094;6.760;2023-06-22T12:31:02;13.88;;;11.00;;
70014;SDS011;57358;51.094;6.760;2023-06-22T12:33:28;16.95;;;10.45;;
70014;SDS011;57358;51.094;6.760;2023-06-22T12:35:56;13.68;;;9.77;;
70014;SDS011;57358;51.094;6.760;2023-06-22T12:38:23;12.05;;;10.77;;
70014;SDS011;57358;51.094;6.760;2023-06-22T12:40:52;12.85;;;11.30;;
70014;SDS011;57358;51.094;6.760;2023-06-22T12:43:18;11.88;;;10.13;;
70014;SDS011;57358;51.094;6.760;2023-06-22T12:45:45;11.52;;;10.38;;
70014;SDS011;57358;51.094;6.760;2023-06-22T12:48:11;11.90;;;10.52;;
70014;SDS011;57358;51.094;6.760;2023-06-22T12:50:39;11.60;;;10.40;;
70014;SDS011;57358;51.094;6.760;2023-06-22T12:53:05;12.88;;;10.65;;
70014;SDS011;57358;51.094;6.760;2023-06-22T12:55:32;13.73;;;11.10;;
70014;SDS011;57358;51.094;6.760;2023-06-22T12:57:58;12.77;;;10.02;;
70014;SDS011;57358;51.094;6.760;2023-06-22T13:00:25;10.80;;;9.80;;
70014;SDS011;57358;51.094;6.760;2023-06-22T13:02:51;13.10;;;10.82;;
70014;SDS011;57358;51.094;6.760;2023-06-22T13:05:19;13.20;;;9.70;;
70014;SDS011;57358;51.094;6.760;2023-06-22T13:07:46;12.55;;;10.85;;
70014;SDS011;57358;51.094;6.760;2023-06-22T13:10:13;13.35;;;10.88;;
70014;SDS011;57358;51.094;6.760;2023-06-22T13:12:39;11.07;;;9.90;;
70014;SDS011;57358;51.094;6.760;2023-06-22T13:15:06;12.90;;;10.65;;
70014;SDS011;57358;51.094;6.760;2023-06-22T13:17:33;12.88;;;11.23;;
70014;SDS011;57358;51.094;6.760;2023-06-22T13:19:59;11.63;;;10.30;;
70014;SDS011;57358;51.094;6.760;2023-06-22T13:22:32;13.15;;;10.77;;
70014;SDS011;57358;51.094;6.760;2023-06-22T13:25:06;12.75;;;10.63;;
70014;SDS011;57358;51.094;6.760;2023-06-22T13:27:33;13.18;;;10.65;;
70014;SDS011;57358;51.094;6.760;2023-06-22T13:29:59;17.60;;;10.13;;
70014;SDS011;57358;51.094;6.760;2023-06-22T13:32:25;14.80;;;10.45;;
70014;SDS011;57358;51.094;6.760;2023-06-22T13:34:52;12.15;;;10.90;;
70014;SDS011;57358;51.094;6.760;2023-06-22T13:37:18;12.20;;;10.95;;
70014;SDS011;57358;51.094;6.760;2023-06-22T13:39:45;13.50;;;11.05;;
70014;SDS011;57358;51.094;6.760;2023-06-22T13:42:11;15.90;;;11.52;;
70014;SDS011;57358;51.094;6.760;2023-06-22T13:44:38;14.55;;;10.88;;
70014;SDS011;57358;51.094;6.760;2023-06-22T13:47:04;10.70;;;9.68;;
70014;SDS011;57358;51.094;6.760;2023-06-22T13:49:31;13.45;;;10.98;;
70014;SDS011;57358;51.094;6.760;2023-06-22T13:51:58;15.73;;;11.38;;
70014;SDS011;57358;51.094;6.760;2023-06-22T13:54:25;12.40;;;11.15;;
70014;SDS011;57358;51.094;6.760;2023-06-22T13:56:56;16.13;;;11.18;;
70014;SDS011;57358;51.094;6.760;2023-06-22T13:59:22;14.02;;;11.20;;
70014;SDS011;57358;51.094;6.760;2023-06-22T14:01:49;16.05;;;11.55;;
70014;SDS011;57358;51.094;6.760;2023-06-22T14:04:15;14.98;;;12.25;;
70014;SDS011;57358;51.094;6.760;2023-06-22T14:06:42;14.55;;;11.50;;
70014;SDS011;57358;51.094;6.760;2023-06-22T14:09:08;11.30;;;10.15;;
70014;SDS011;57358;51.094;6.760;2023-06-22T14:11:35;12.75;;;11.00;;
70014;SDS011;57358;51.094;6.760;2023-06-22T14:14:02;11.50;;;9.93;;
70014;SDS011;57358;51.094;6.760;2023-06-22T14:16:28;11.68;;;10.38;;
70014;SDS011;57358;51.094;6.760;2023-06-22T14:18:54;11.02;;;9.68;;
70014;SDS011;57358;51.094;6.760;2023-06-22T14:21:23;11.98;;;10.70;;
70014;SDS011;57358;51.094;6.760;2023-06-22T14:23:50;11.80;;;10.60;;
70014;SDS011;57358;51.094;6.760;2023-06-22T14:26:16;12.32;;;10.80;;
70014;SDS011;57358;51.094;6.760;2023-06-22T14:28:46;17.13;;;10.13;;
70014;SDS011;57358;51.094;6.760;2023-06-22T14:31:16;12.05;;;10.80;;
70014;SDS011;57358;51.094;6.760;2023-06-22T14:33:45;15.20;;;10.38;;
70014;SDS011;57358;51.094;6.760;2023-06-22T14:36:15;10.40;;;9.30;;
70014;SDS011;57358;51.094;6.760;2023-06-22T14:38:43;10.73;;;9.63;;
70014;SDS011;57358;51.094;6.760;2023-06-22T14:41:09;10.70;;;9.70;;
70014;SDS011;57358;51.094;6.760;2023-06-22T14:43:44;12.02;;;9.95;;
70014;SDS011;57358;51.094;6.760;2023-06-22T14:46:12;10.60;;;9.50;;
70014;SDS011;57358;51.094;6.760;2023-06-22T14:48:40;11.07;;;9.88;;